KJST/JST METAR and TAF weather

Enter ICAO airport designator
Station Type Date Time Source
KJST METAR 2020/04/04 11:54 UTC NOAA

KJST 041154Z AUTO 36005KT 10SM OVC016 04/00 A2999 RMK AO2 SLP164 T00440000 10056 20039 53011


Station Type Date Time Source
KJST Decoded METAR 2020/04/04 11:54 UTC NOAA

JOHNSTOWN-CAMBRIA CO AIRPORT , PA, United States (KJST) 40-19N 078-50W 694M
Apr 04, 2020 - 07:54 AM EDT / 2020.04.04 1154 UTC
Wind: from the N (360 degrees) at 6 MPH (5 KT):0
Visibility: 10 mile(s):0
Sky conditions: overcast
Temperature: 39.9 F (4.4 C)
Dew Point: 32.0 F (0.0 C)
Relative Humidity: 73%
Pressure (altimeter): 29.99 in. Hg (1015 hPa)
Pressure tendency: 0.03 inches (1.1 hPa) higher than three hours ago
ob: KJST 041154Z AUTO 36005KT 10SM OVC016 04/00 A2999 RMK AO2 SLP164 T00440000 10056 20039 53011
cycle: 12

Station Type Date Time Source
KJST TAF 2020/04/04 12:36 UTC NOAA

TAF KJST 041133Z 0412/0512 30005KT P6SM OVC017
FM041900 VRB03KT P6SM OVC025
FM042300 09004KT P6SM BKN040

Example: see airport list